sensor_id;sensor_type;location;lat;lon;timestamp;temperature;humidity
13796;SHT30;40911;51.552;9.874;2024-03-29T00:01:14;6.68;85.54
13796;SHT30;40911;51.552;9.874;2024-03-29T00:03:34;6.75;85.28
13796;SHT30;40911;51.552;9.874;2024-03-29T00:05:55;6.73;85.27
13796;SHT30;40911;51.552;9.874;2024-03-29T00:08:16;6.80;85.03
13796;SHT30;40911;51.552;9.874;2024-03-29T00:10:36;6.76;84.91
13796;SHT30;40911;51.552;9.874;2024-03-29T00:12:57;6.61;85.51
13796;SHT30;40911;51.552;9.874;2024-03-29T00:15:18;6.62;85.46
13796;SHT30;40911;51.552;9.874;2024-03-29T00:17:40;6.55;85.37
13796;SHT30;40911;51.552;9.874;2024-03-29T00:20:01;6.53;85.49
13796;SHT30;40911;51.552;9.874;2024-03-29T00:22:21;6.53;85.25
13796;SHT30;40911;51.552;9.874;2024-03-29T00:24:42;6.51;85.18
13796;SHT30;40911;51.552;9.874;2024-03-29T00:27:03;6.44;85.51
13796;SHT30;40911;51.552;9.874;2024-03-29T00:29:24;6.48;85.22
13796;SHT30;40911;51.552;9.874;2024-03-29T00:31:44;6.51;85.10
13796;SHT30;40911;51.552;9.874;2024-03-29T00:34:06;6.46;84.92
13796;SHT30;40911;51.552;9.874;2024-03-29T00:36:27;6.42;84.95
13796;SHT30;40911;51.552;9.874;2024-03-29T00:38:47;6.41;85.19
13796;SHT30;40911;51.552;9.874;2024-03-29T00:41:08;6.38;85.16
13796;SHT30;40911;51.552;9.874;2024-03-29T00:43:29;6.35;85.36
13796;SHT30;40911;51.552;9.874;2024-03-29T00:45:49;6.45;84.66
13796;SHT30;40911;51.552;9.874;2024-03-29T00:48:10;6.34;84.75
13796;SHT30;40911;51.552;9.874;2024-03-29T00:50:32;6.38;84.97
13796;SHT30;40911;51.552;9.874;2024-03-29T00:52:53;6.32;84.70
13796;SHT30;40911;51.552;9.874;2024-03-29T00:55:13;6.32;84.79
13796;SHT30;40911;51.552;9.874;2024-03-29T00:57:34;6.25;85.39
13796;SHT30;40911;51.552;9.874;2024-03-29T00:59:55;6.21;85.53
13796;SHT30;40911;51.552;9.874;2024-03-29T01:02:15;6.11;86.13
13796;SHT30;40911;51.552;9.874;2024-03-29T01:04:36;6.00;86.18
13796;SHT30;40911;51.552;9.874;2024-03-29T01:06:58;5.93;86.32
13796;SHT30;40911;51.552;9.874;2024-03-29T01:09:19;5.87;86.92
13796;SHT30;40911;51.552;9.874;2024-03-29T01:11:40;5.86;86.63
13796;SHT30;40911;51.552;9.874;2024-03-29T01:14:00;5.78;86.84
13796;SHT30;40911;51.552;9.874;2024-03-29T01:16:21;5.73;86.94
13796;SHT30;40911;51.552;9.874;2024-03-29T01:18:42;5.78;86.73
13796;SHT30;40911;51.552;9.874;2024-03-29T01:21:02;5.71;86.59
13796;SHT30;40911;51.552;9.874;2024-03-29T01:23:24;5.73;86.82
13796;SHT30;40911;51.552;9.874;2024-03-29T01:25:45;5.59;87.11
13796;SHT30;40911;51.552;9.874;2024-03-29T01:28:06;5.49;87.30
13796;SHT30;40911;51.552;9.874;2024-03-29T01:30:26;5.49;88.00
13796;SHT30;40911;51.552;9.874;2024-03-29T01:32:47;5.38;87.92
13796;SHT30;40911;51.552;9.874;2024-03-29T01:35:08;5.41;87.84
13796;SHT30;40911;51.552;9.874;2024-03-29T01:37:29;5.35;87.78
13796;SHT30;40911;51.552;9.874;2024-03-29T01:39:51;5.31;87.89
13796;SHT30;40911;51.552;9.874;2024-03-29T01:42:11;5.27;88.31
13796;SHT30;40911;51.552;9.874;2024-03-29T01:44:32;5.17;88.16
13796;SHT30;40911;51.552;9.874;2024-03-29T01:46:54;5.21;88.04
13796;SHT30;40911;51.552;9.874;2024-03-29T01:49:15;5.28;88.15
13796;SHT30;40911;51.552;9.874;2024-03-29T01:51:38;5.14;88.49
13796;SHT30;40911;51.552;9.874;2024-03-29T01:54:01;5.06;88.37
13796;SHT30;40911;51.552;9.874;2024-03-29T01:56:24;5.13;88.39
13796;SHT30;40911;51.552;9.874;2024-03-29T01:58:48;5.03;88.85
13796;SHT30;40911;51.552;9.874;2024-03-29T02:01:11;5.01;88.96
13796;SHT30;40911;51.552;9.874;2024-03-29T02:03:33;4.96;88.77
13796;SHT30;40911;51.552;9.874;2024-03-29T02:05:55;4.99;88.91
13796;SHT30;40911;51.552;9.874;2024-03-29T02:08:18;4.96;89.09
13796;SHT30;40911;51.552;9.874;2024-03-29T02:10:39;4.95;89.07
13796;SHT30;40911;51.552;9.874;2024-03-29T02:13:01;4.89;89.03
13796;SHT30;40911;51.552;9.874;2024-03-29T02:15:23;5.04;88.76
13796;SHT30;40911;51.552;9.874;2024-03-29T02:17:43;4.97;88.60
13796;SHT30;40911;51.552;9.874;2024-03-29T02:20:05;4.90;88.97
13796;SHT30;40911;51.552;9.874;2024-03-29T02:22:29;4.85;89.17
13796;SHT30;40911;51.552;9.874;2024-03-29T02:24:53;4.87;89.22
13796;SHT30;40911;51.552;9.874;2024-03-29T02:27:16;4.87;89.23
13796;SHT30;40911;51.552;9.874;2024-03-29T02:29:38;4.89;89.09
13796;SHT30;40911;51.552;9.874;2024-03-29T02:31:59;4.93;89.46
13796;SHT30;40911;51.552;9.874;2024-03-29T02:34:21;5.00;89.30
13796;SHT30;40911;51.552;9.874;2024-03-29T02:36:43;5.04;89.01
13796;SHT30;40911;51.552;9.874;2024-03-29T02:39:05;5.14;88.82
13796;SHT30;40911;51.552;9.874;2024-03-29T02:41:28;5.11;88.81
13796;SHT30;40911;51.552;9.874;2024-03-29T02:43:50;5.08;89.19
13796;SHT30;40911;51.552;9.874;2024-03-29T02:46:12;5.17;89.09
13796;SHT30;40911;51.552;9.874;2024-03-29T02:48:32;5.14;89.07
13796;SHT30;40911;51.552;9.874;2024-03-29T02:50:54;5.18;88.96
13796;SHT30;40911;51.552;9.874;2024-03-29T02:53:15;5.23;88.70
13796;SHT30;40911;51.552;9.874;2024-03-29T02:55:36;5.25;88.71
13796;SHT30;40911;51.552;9.874;2024-03-29T02:57:58;5.28;88.59
13796;SHT30;40911;51.552;9.874;2024-03-29T03:00:20;5.28;88.64
13796;SHT30;40911;51.552;9.874;2024-03-29T03:02:40;5.30;88.39
13796;SHT30;40911;51.552;9.874;2024-03-29T03:05:02;5.30;88.53
13796;SHT30;40911;51.552;9.874;2024-03-29T03:07:23;5.34;88.42
13796;SHT30;40911;51.552;9.874;2024-03-29T03:10:02;5.35;88.37
13796;SHT30;40911;51.552;9.874;2024-03-29T03:12:41;5.38;88.49
13796;SHT30;40911;51.552;9.874;2024-03-29T03:15:04;5.37;88.08
13796;SHT30;40911;51.552;9.874;2024-03-29T03:17:25;5.44;88.08
13796;SHT30;40911;51.552;9.874;2024-03-29T03:19:47;5.44;88.03
13796;SHT30;40911;51.552;9.874;2024-03-29T03:22:08;5.48;88.09
13796;SHT30;40911;51.552;9.874;2024-03-29T03:24:29;5.45;88.14
13796;SHT30;40911;51.552;9.874;2024-03-29T03:26:50;5.48;88.07
13796;SHT30;40911;51.552;9.874;2024-03-29T03:29:11;5.48;88.40
13796;SHT30;40911;51.552;9.874;2024-03-29T03:31:33;5.49;88.40
13796;SHT30;40911;51.552;9.874;2024-03-29T03:33:55;5.56;88.36
13796;SHT30;40911;51.552;9.874;2024-03-29T03:36:16;5.58;87.93
13796;SHT30;40911;51.552;9.874;2024-03-29T03:38:37;5.55;88.46
13796;SHT30;40911;51.552;9.874;2024-03-29T03:41:00;5.61;88.43
13796;SHT30;40911;51.552;9.874;2024-03-29T03:43:21;5.59;88.66
13796;SHT30;40911;51.552;9.874;2024-03-29T03:45:42;5.62;88.94
13796;SHT30;40911;51.552;9.874;2024-03-29T03:48:07;5.66;88.67
13796;SHT30;40911;51.552;9.874;2024-03-29T03:50:28;5.64;88.77
13796;SHT30;40911;51.552;9.874;2024-03-29T03:52:50;5.65;88.95
13796;SHT30;40911;51.552;9.874;2024-03-29T03:55:10;5.78;88.23
13796;SHT30;40911;51.552;9.874;2024-03-29T03:57:32;5.71;88.69
13796;SHT30;40911;51.552;9.874;2024-03-29T03:59:54;5.71;88.59
13796;SHT30;40911;51.552;9.874;2024-03-29T04:02:15;5.85;87.89
13796;SHT30;40911;51.552;9.874;2024-03-29T04:04:37;5.92;87.80
13796;SHT30;40911;51.552;9.874;2024-03-29T04:06:59;5.94;87.44
13796;SHT30;40911;51.552;9.874;2024-03-29T04:09:19;5.99;87.39
13796;SHT30;40911;51.552;9.874;2024-03-29T04:11:41;6.03;86.98
13796;SHT30;40911;51.552;9.874;2024-03-29T04:14:02;6.17;86.48
13796;SHT30;40911;51.552;9.874;2024-03-29T04:16:23;6.18;85.92
13796;SHT30;40911;51.552;9.874;2024-03-29T04:18:44;6.42;84.85
13796;SHT30;40911;51.552;9.874;2024-03-29T04:21:07;6.65;83.28
13796;SHT30;40911;51.552;9.874;2024-03-29T04:23:27;6.73;82.88
13796;SHT30;40911;51.552;9.874;2024-03-29T04:25:51;6.64;83.34
13796;SHT30;40911;51.552;9.874;2024-03-29T04:28:12;6.62;83.28
13796;SHT30;40911;51.552;9.874;2024-03-29T04:30:33;6.68;82.98
13796;SHT30;40911;51.552;9.874;2024-03-29T04:32:54;6.85;82.66
13796;SHT30;40911;51.552;9.874;2024-03-29T04:35:16;6.85;82.71
13796;SHT30;40911;51.552;9.874;2024-03-29T04:37:37;6.82;82.36
13796;SHT30;40911;51.552;9.874;2024-03-29T04:39:59;6.80;82.79
13796;SHT30;40911;51.552;9.874;2024-03-29T04:42:21;6.75;83.24
13796;SHT30;40911;51.552;9.874;2024-03-29T04:44:42;6.69;83.43
13796;SHT30;40911;51.552;9.874;2024-03-29T04:47:04;6.85;82.70
13796;SHT30;40911;51.552;9.874;2024-03-29T04:49:25;6.78;83.32
13796;SHT30;40911;51.552;9.874;2024-03-29T04:51:53;6.79;82.99
13796;SHT30;40911;51.552;9.874;2024-03-29T04:54:17;6.76;83.45
13796;SHT30;40911;51.552;9.874;2024-03-29T04:56:38;6.75;83.68
13796;SHT30;40911;51.552;9.874;2024-03-29T04:59:00;6.75;83.87
13796;SHT30;40911;51.552;9.874;2024-03-29T05:01:22;6.80;83.49
13796;SHT30;40911;51.552;9.874;2024-03-29T05:03:43;6.76;83.67
13796;SHT30;40911;51.552;9.874;2024-03-29T05:06:05;6.75;83.83
13796;SHT30;40911;51.552;9.874;2024-03-29T05:08:26;6.72;84.42
13796;SHT30;40911;51.552;9.874;2024-03-29T05:10:49;6.72;84.52
13796;SHT30;40911;51.552;9.874;2024-03-29T05:13:11;6.65;84.68
13796;SHT30;40911;51.552;9.874;2024-03-29T05:15:33;6.68;84.81
13796;SHT30;40911;51.552;9.874;2024-03-29T05:17:55;6.65;85.19
13796;SHT30;40911;51.552;9.874;2024-03-29T05:20:17;6.62;85.36
13796;SHT30;40911;51.552;9.874;2024-03-29T05:22:38;6.61;85.70
13796;SHT30;40911;51.552;9.874;2024-03-29T05:25:00;6.59;85.91
13796;SHT30;40911;51.552;9.874;2024-03-29T05:27:23;6.62;86.23
13796;SHT30;40911;51.552;9.874;2024-03-29T05:29:44;6.62;86.28
13796;SHT30;40911;51.552;9.874;2024-03-29T05:32:06;6.56;87.38
13796;SHT30;40911;51.552;9.874;2024-03-29T05:34:28;6.56;87.00
13796;SHT30;40911;51.552;9.874;2024-03-29T05:36:49;6.53;87.37
13796;SHT30;40911;51.552;9.874;2024-03-29T05:39:11;6.56;87.40
13796;SHT30;40911;51.552;9.874;2024-03-29T05:41:32;6.62;87.00
13796;SHT30;40911;51.552;9.874;2024-03-29T05:43:55;6.65;86.89
13796;SHT30;40911;51.552;9.874;2024-03-29T05:46:17;6.64;87.35
13796;SHT30;40911;51.552;9.874;2024-03-29T05:48:39;6.73;86.68
13796;SHT30;40911;51.552;9.874;2024-03-29T05:51:00;6.68;87.18
13796;SHT30;40911;51.552;9.874;2024-03-29T05:53:22;6.62;87.60
13796;SHT30;40911;51.552;9.874;2024-03-29T05:55:44;6.69;87.84
13796;SHT30;40911;51.552;9.874;2024-03-29T05:58:06;6.76;87.32
13796;SHT30;40911;51.552;9.874;2024-03-29T06:00:29;6.78;87.84
13796;SHT30;40911;51.552;9.874;2024-03-29T06:02:51;6.69;88.20
13796;SHT30;40911;51.552;9.874;2024-03-29T06:05:12;6.73;88.47
13796;SHT30;40911;51.552;9.874;2024-03-29T06:07:34;6.75;88.67
13796;SHT30;40911;51.552;9.874;2024-03-29T06:09:56;6.72;88.66
13796;SHT30;40911;51.552;9.874;2024-03-29T06:12:17;6.75;88.94
13796;SHT30;40911;51.552;9.874;2024-03-29T06:14:39;6.73;88.98
13796;SHT30;40911;51.552;9.874;2024-03-29T06:17:19;6.72;89.12
13796;SHT30;40911;51.552;9.874;2024-03-29T06:19:44;6.72;89.39
13796;SHT30;40911;51.552;9.874;2024-03-29T06:22:05;6.71;89.76
13796;SHT30;40911;51.552;9.874;2024-03-29T06:24:29;6.72;90.05
13796;SHT30;40911;51.552;9.874;2024-03-29T06:26:52;6.72;89.79
13796;SHT30;40911;51.552;9.874;2024-03-29T06:29:14;6.71;90.31
13796;SHT30;40911;51.552;9.874;2024-03-29T06:31:36;6.72;90.35
13796;SHT30;40911;51.552;9.874;2024-03-29T06:33:58;6.72;90.52
13796;SHT30;40911;51.552;9.874;2024-03-29T06:36:20;6.73;90.67
13796;SHT30;40911;51.552;9.874;2024-03-29T06:38:42;6.73;91.01
13796;SHT30;40911;51.552;9.874;2024-03-29T06:41:03;6.80;91.10
13796;SHT30;40911;51.552;9.874;2024-03-29T06:43:25;6.80;90.83
13796;SHT30;40911;51.552;9.874;2024-03-29T06:45:46;6.80;91.09
13796;SHT30;40911;51.552;9.874;2024-03-29T06:48:08;6.83;91.37
13796;SHT30;40911;51.552;9.874;2024-03-29T06:50:31;6.82;91.87
13796;SHT30;40911;51.552;9.874;2024-03-29T06:52:52;6.82;92.14
13796;SHT30;40911;51.552;9.874;2024-03-29T06:55:15;6.88;92.44
13796;SHT30;40911;51.552;9.874;2024-03-29T06:57:37;6.85;92.27
13796;SHT30;40911;51.552;9.874;2024-03-29T06:59:58;6.80;92.86
13796;SHT30;40911;51.552;9.874;2024-03-29T07:02:20;6.79;92.63
13796;SHT30;40911;51.552;9.874;2024-03-29T07:04:41;6.78;92.95
13796;SHT30;40911;51.552;9.874;2024-03-29T07:07:04;6.78;93.19
13796;SHT30;40911;51.552;9.874;2024-03-29T07:09:26;6.79;93.37
13796;SHT30;40911;51.552;9.874;2024-03-29T07:11:48;6.76;93.62
13796;SHT30;40911;51.552;9.874;2024-03-29T07:14:10;6.80;93.89
13796;SHT30;40911;51.552;9.874;2024-03-29T07:16:32;6.83;94.08
13796;SHT30;40911;51.552;9.874;2024-03-29T07:18:53;6.88;94.30
13796;SHT30;40911;51.552;9.874;2024-03-29T07:21:15;6.90;94.50
13796;SHT30;40911;51.552;9.874;2024-03-29T07:23:38;6.95;94.58
13796;SHT30;40911;51.552;9.874;2024-03-29T07:26:01;7.04;94.49
13796;SHT30;40911;51.552;9.874;2024-03-29T07:28:23;7.11;94.41
13796;SHT30;40911;51.552;9.874;2024-03-29T07:30:44;7.14;94.49
13796;SHT30;40911;51.552;9.874;2024-03-29T07:33:06;7.17;94.18
13796;SHT30;40911;51.552;9.874;2024-03-29T07:35:29;7.24;94.08
13796;SHT30;40911;51.552;9.874;2024-03-29T07:37:51;7.31;93.83
13796;SHT30;40911;51.552;9.874;2024-03-29T07:40:15;7.34;93.70
13796;SHT30;40911;51.552;9.874;2024-03-29T07:42:37;7.34;93.46
13796;SHT30;40911;51.552;9.874;2024-03-29T07:44:58;7.37;93.60
13796;SHT30;40911;51.552;9.874;2024-03-29T07:47:20;7.42;93.39
13796;SHT30;40911;51.552;9.874;2024-03-29T07:49:43;7.42;93.36
13796;SHT30;40911;51.552;9.874;2024-03-29T07:52:06;7.47;92.84
13796;SHT30;40911;51.552;9.874;2024-03-29T07:54:29;7.51;92.96
13796;SHT30;40911;51.552;9.874;2024-03-29T07:56:52;7.59;92.64
13796;SHT30;40911;51.552;9.874;2024-03-29T07:59:13;7.63;92.70
13796;SHT30;40911;51.552;9.874;2024-03-29T08:01:35;7.65;92.95
13796;SHT30;40911;51.552;9.874;2024-03-29T08:03:57;7.75;93.01
13796;SHT30;40911;51.552;9.874;2024-03-29T08:06:18;7.74;92.55
13796;SHT30;40911;51.552;9.874;2024-03-29T08:08:40;7.83;92.43
13796;SHT30;40911;51.552;9.874;2024-03-29T08:11:02;7.86;92.44
13796;SHT30;40911;51.552;9.874;2024-03-29T08:13:25;7.90;92.25
13796;SHT30;40911;51.552;9.874;2024-03-29T08:15:47;7.96;92.78
13796;SHT30;40911;51.552;9.874;2024-03-29T08:18:08;7.89;92.22
13796;SHT30;40911;51.552;9.874;2024-03-29T08:20:30;7.92;92.21
13796;SHT30;40911;51.552;9.874;2024-03-29T08:22:52;7.97;92.32
13796;SHT30;40911;51.552;9.874;2024-03-29T08:25:15;8.02;92.26
13796;SHT30;40911;51.552;9.874;2024-03-29T08:27:37;8.06;92.37
13796;SHT30;40911;51.552;9.874;2024-03-29T08:30:00;8.13;92.68
13796;SHT30;40911;51.552;9.874;2024-03-29T08:32:22;8.13;92.21
13796;SHT30;40911;51.552;9.874;2024-03-29T08:34:44;8.17;92.42
13796;SHT30;40911;51.552;9.874;2024-03-29T08:37:05;8.13;92.38
13796;SHT30;40911;51.552;9.874;2024-03-29T08:39:27;8.13;92.70
13796;SHT30;40911;51.552;9.874;2024-03-29T08:41:49;8.20;92.53
13796;SHT30;40911;51.552;9.874;2024-03-29T08:44:11;8.27;92.68
13796;SHT30;40911;51.552;9.874;2024-03-29T08:46:34;8.23;92.60
13796;SHT30;40911;51.552;9.874;2024-03-29T08:48:56;8.20;92.84
13796;SHT30;40911;51.552;9.874;2024-03-29T08:51:17;8.30;92.97
13796;SHT30;40911;51.552;9.874;2024-03-29T08:53:40;8.23;92.80
13796;SHT30;40911;51.552;9.874;2024-03-29T08:56:01;8.28;93.01
13796;SHT30;40911;51.552;9.874;2024-03-29T08:58:23;8.37;93.08
13796;SHT30;40911;51.552;9.874;2024-03-29T09:00:52;8.33;93.25
13796;SHT30;40911;51.552;9.874;2024-03-29T09:03:15;8.34;93.16
13796;SHT30;40911;51.552;9.874;2024-03-29T09:05:37;8.41;93.57
13796;SHT30;40911;51.552;9.874;2024-03-29T09:07:58;8.46;93.51
13796;SHT30;40911;51.552;9.874;2024-03-29T09:10:21;8.54;93.89
13796;SHT30;40911;51.552;9.874;2024-03-29T09:12:43;8.61;94.02
13796;SHT30;40911;51.552;9.874;2024-03-29T09:15:05;8.69;93.97
13796;SHT30;40911;51.552;9.874;2024-03-29T09:17:29;8.77;93.45
13796;SHT30;40911;51.552;9.874;2024-03-29T09:19:52;8.96;93.89
13796;SHT30;40911;51.552;9.874;2024-03-29T09:22:13;9.03;93.35
13796;SHT30;40911;51.552;9.874;2024-03-29T09:24:35;9.11;93.35
13796;SHT30;40911;51.552;9.874;2024-03-29T09:26:56;9.11;93.37
13796;SHT30;40911;51.552;9.874;2024-03-29T09:29:18;9.14;93.44
13796;SHT30;40911;51.552;9.874;2024-03-29T09:31:40;9.21;93.39
13796;SHT30;40911;51.552;9.874;2024-03-29T09:34:02;9.24;93.29
13796;SHT30;40911;51.552;9.874;2024-03-29T09:36:25;9.34;93.22
13796;SHT30;40911;51.552;9.874;2024-03-29T09:38:46;9.40;93.12
13796;SHT30;40911;51.552;9.874;2024-03-29T09:41:11;9.49;92.96
13796;SHT30;40911;51.552;9.874;2024-03-29T09:43:34;9.55;93.00
13796;SHT30;40911;51.552;9.874;2024-03-29T09:45:56;9.57;92.95
13796;SHT30;40911;51.552;9.874;2024-03-29T09:48:18;9.63;92.76
13796;SHT30;40911;51.552;9.874;2024-03-29T09:50:39;9.61;92.44
13796;SHT30;40911;51.552;9.874;2024-03-29T09:53:02;9.70;92.45
13796;SHT30;40911;51.552;9.874;2024-03-29T09:55:27;9.82;92.32
13796;SHT30;40911;51.552;9.874;2024-03-29T09:57:49;9.90;92.48
13796;SHT30;40911;51.552;9.874;2024-03-29T10:00:12;9.88;92.18
13796;SHT30;40911;51.552;9.874;2024-03-29T10:02:33;10.05;92.34
13796;SHT30;40911;51.552;9.874;2024-03-29T10:04:56;10.03;91.65
13796;SHT30;40911;51.552;9.874;2024-03-29T10:07:19;10.06;91.57
13796;SHT30;40911;51.552;9.874;2024-03-29T10:09:42;10.10;91.71
13796;SHT30;40911;51.552;9.874;2024-03-29T10:12:05;10.12;91.48
13796;SHT30;40911;51.552;9.874;2024-03-29T10:14:26;10.07;91.77
13796;SHT30;40911;51.552;9.874;2024-03-29T10:16:50;10.16;91.73
13796;SHT30;40911;51.552;9.874;2024-03-29T10:19:11;10.09;91.20
13796;SHT30;40911;51.552;9.874;2024-03-29T10:21:33;10.18;91.29
13796;SHT30;40911;51.552;9.874;2024-03-29T10:23:56;10.17;91.36
13796;SHT30;40911;51.552;9.874;2024-03-29T10:26:19;10.16;91.65
13796;SHT30;40911;51.552;9.874;2024-03-29T10:28:43;10.10;91.35
13796;SHT30;40911;51.552;9.874;2024-03-29T10:31:05;10.13;91.46
13796;SHT30;40911;51.552;9.874;2024-03-29T10:33:31;10.14;91.51
13796;SHT30;40911;51.552;9.874;2024-03-29T10:35:53;10.14;91.41
13796;SHT30;40911;51.552;9.874;2024-03-29T10:38:16;10.23;91.32
13796;SHT30;40911;51.552;9.874;2024-03-29T10:40:39;10.18;91.18
13796;SHT30;40911;51.552;9.874;2024-03-29T10:43:02;10.16;91.08
13796;SHT30;40911;51.552;9.874;2024-03-29T10:45:27;10.17;90.98
13796;SHT30;40911;51.552;9.874;2024-03-29T10:47:51;10.30;90.90
13796;SHT30;40911;51.552;9.874;2024-03-29T10:50:14;10.38;90.77
13796;SHT30;40911;51.552;9.874;2024-03-29T10:52:36;10.49;90.31
13796;SHT30;40911;51.552;9.874;2024-03-29T10:54:59;10.67;90.33
13796;SHT30;40911;51.552;9.874;2024-03-29T10:57:23;10.68;90.11
13796;SHT30;40911;51.552;9.874;2024-03-29T10:59:49;10.81;90.49
13796;SHT30;40911;51.552;9.874;2024-03-29T11:02:25;10.72;90.82
13796;SHT30;40911;51.552;9.874;2024-03-29T11:04:51;10.71;90.78
13796;SHT30;40911;51.552;9.874;2024-03-29T11:07:17;10.83;90.74
13796;SHT30;40911;51.552;9.874;2024-03-29T11:09:41;10.93;90.27
13796;SHT30;40911;51.552;9.874;2024-03-29T11:12:04;11.03;90.09
13796;SHT30;40911;51.552;9.874;2024-03-29T11:14:29;11.02;89.58
13796;SHT30;40911;51.552;9.874;2024-03-29T11:16:54;11.19;89.97
13796;SHT30;40911;51.552;9.874;2024-03-29T11:19:19;11.28;89.26
13796;SHT30;40911;51.552;9.874;2024-03-29T11:21:41;11.27;89.20
13796;SHT30;40911;51.552;9.874;2024-03-29T11:24:07;11.17;89.21
13796;SHT30;40911;51.552;9.874;2024-03-29T11:26:29;11.10;88.90
13796;SHT30;40911;51.552;9.874;2024-03-29T11:28:52;11.07;88.77
13796;SHT30;40911;51.552;9.874;2024-03-29T11:31:14;10.97;89.31
13796;SHT30;40911;51.552;9.874;2024-03-29T11:33:45;10.95;89.01
13796;SHT30;40911;51.552;9.874;2024-03-29T11:36:10;10.97;89.25
13796;SHT30;40911;51.552;9.874;2024-03-29T11:38:34;10.93;89.33
13796;SHT30;40911;51.552;9.874;2024-03-29T11:40:54;11.00;89.08
13796;SHT30;40911;51.552;9.874;2024-03-29T11:43:16;11.14;88.69
13796;SHT30;40911;51.552;9.874;2024-03-29T11:45:38;11.41;88.32
13796;SHT30;40911;51.552;9.874;2024-03-29T11:48:05;11.58;87.84
13796;SHT30;40911;51.552;9.874;2024-03-29T11:50:32;11.83;87.23
13796;SHT30;40911;51.552;9.874;2024-03-29T11:52:53;12.19;86.41
13796;SHT30;40911;51.552;9.874;2024-03-29T11:55:15;12.13;85.91
13796;SHT30;40911;51.552;9.874;2024-03-29T11:57:38;12.55;85.42
13796;SHT30;40911;51.552;9.874;2024-03-29T12:00:00;12.57;84.46
13796;SHT30;40911;51.552;9.874;2024-03-29T12:02:21;12.68;84.39
13796;SHT30;40911;51.552;9.874;2024-03-29T12:04:43;12.79;84.24
13796;SHT30;40911;51.552;9.874;2024-03-29T12:07:06;12.54;84.01
13796;SHT30;40911;51.552;9.874;2024-03-29T12:09:29;12.85;84.22
13796;SHT30;40911;51.552;9.874;2024-03-29T12:11:51;12.75;84.37
13796;SHT30;40911;51.552;9.874;2024-03-29T12:14:14;12.58;84.75
13796;SHT30;40911;51.552;9.874;2024-03-29T12:16:42;12.64;84.13
13796;SHT30;40911;51.552;9.874;2024-03-29T12:19:04;12.60;84.37
13796;SHT30;40911;51.552;9.874;2024-03-29T12:21:26;12.48;84.70
13796;SHT30;40911;51.552;9.874;2024-03-29T12:23:49;12.61;85.01
13796;SHT30;40911;51.552;9.874;2024-03-29T12:26:12;12.43;84.60
13796;SHT30;40911;51.552;9.874;2024-03-29T12:28:34;12.51;84.67
13796;SHT30;40911;51.552;9.874;2024-03-29T12:30:56;12.55;84.94
13796;SHT30;40911;51.552;9.874;2024-03-29T12:33:19;12.60;84.66
13796;SHT30;40911;51.552;9.874;2024-03-29T12:35:41;12.67;84.14
13796;SHT30;40911;51.552;9.874;2024-03-29T12:38:04;12.65;83.37
13796;SHT30;40911;51.552;9.874;2024-03-29T12:40:29;12.44;82.76
13796;SHT30;40911;51.552;9.874;2024-03-29T12:42:56;12.43;83.51
13796;SHT30;40911;51.552;9.874;2024-03-29T12:45:18;12.64;83.58
13796;SHT30;40911;51.552;9.874;2024-03-29T12:47:39;12.47;83.18
13796;SHT30;40911;51.552;9.874;2024-03-29T12:50:02;12.44;83.08
13796;SHT30;40911;51.552;9.874;2024-03-29T12:52:24;12.47;82.88
13796;SHT30;40911;51.552;9.874;2024-03-29T12:54:46;12.43;83.10
13796;SHT30;40911;51.552;9.874;2024-03-29T12:57:09;12.44;83.26
13796;SHT30;40911;51.552;9.874;2024-03-29T12:59:33;12.37;83.33
13796;SHT30;40911;51.552;9.874;2024-03-29T13:01:55;12.40;83.76
13796;SHT30;40911;51.552;9.874;2024-03-29T13:04:17;12.33;83.26
13796;SHT30;40911;51.552;9.874;2024-03-29T13:06:39;12.38;83.13
13796;SHT30;40911;51.552;9.874;2024-03-29T13:09:00;12.36;83.02
13796;SHT30;40911;51.552;9.874;2024-03-29T13:11:22;12.36;83.30
13796;SHT30;40911;51.552;9.874;2024-03-29T13:13:45;12.40;83.25
13796;SHT30;40911;51.552;9.874;2024-03-29T13:16:07;12.46;83.59
13796;SHT30;40911;51.552;9.874;2024-03-29T13:18:28;12.36;83.93
13796;SHT30;40911;51.552;9.874;2024-03-29T13:20:50;12.29;83.63
13796;SHT30;40911;51.552;9.874;2024-03-29T13:23:11;12.38;83.88
13796;SHT30;40911;51.552;9.874;2024-03-29T13:25:34;12.34;84.16
13796;SHT30;40911;51.552;9.874;2024-03-29T13:27:56;12.22;84.17
13796;SHT30;40911;51.552;9.874;2024-03-29T13:30:20;12.19;84.14
13796;SHT30;40911;51.552;9.874;2024-03-29T13:32:42;12.20;84.50
13796;SHT30;40911;51.552;9.874;2024-03-29T13:35:06;12.23;84.71
13796;SHT30;40911;51.552;9.874;2024-03-29T13:37:29;12.27;84.42
13796;SHT30;40911;51.552;9.874;2024-03-29T13:39:51;12.32;84.52
13796;SHT30;40911;51.552;9.874;2024-03-29T13:42:12;12.36;84.43
13796;SHT30;40911;51.552;9.874;2024-03-29T13:44:34;12.44;84.39
13796;SHT30;40911;51.552;9.874;2024-03-29T13:46:57;12.43;84.13
13796;SHT30;40911;51.552;9.874;2024-03-29T13:49:18;12.58;84.51
13796;SHT30;40911;51.552;9.874;2024-03-29T13:51:41;12.55;84.17
13796;SHT30;40911;51.552;9.874;2024-03-29T13:54:03;12.51;84.45
13796;SHT30;40911;51.552;9.874;2024-03-29T13:56:24;12.47;84.26
13796;SHT30;40911;51.552;9.874;2024-03-29T13:58:46;12.54;84.62
13796;SHT30;40911;51.552;9.874;2024-03-29T14:01:08;12.57;84.32
13796;SHT30;40911;51.552;9.874;2024-03-29T14:03:31;12.71;84.45
13796;SHT30;40911;51.552;9.874;2024-03-29T14:05:52;12.67;83.74
13796;SHT30;40911;51.552;9.874;2024-03-29T14:08:14;12.64;83.94
13796;SHT30;40911;51.552;9.874;2024-03-29T14:10:35;12.58;84.18
13796;SHT30;40911;51.552;9.874;2024-03-29T14:12:57;12.64;84.34
13796;SHT30;40911;51.552;9.874;2024-03-29T14:15:20;12.63;84.63
13796;SHT30;40911;51.552;9.874;2024-03-29T14:17:41;12.78;84.74
13796;SHT30;40911;51.552;9.874;2024-03-29T14:20:05;12.79;84.10
13796;SHT30;40911;51.552;9.874;2024-03-29T14:22:26;12.96;84.43
13796;SHT30;40911;51.552;9.874;2024-03-29T14:24:51;12.93;83.80
13796;SHT30;40911;51.552;9.874;2024-03-29T14:27:13;12.85;83.73
13796;SHT30;40911;51.552;9.874;2024-03-29T14:29:35;12.84;83.97
13796;SHT30;40911;51.552;9.874;2024-03-29T14:31:56;13.08;83.91
13796;SHT30;40911;51.552;9.874;2024-03-29T14:34:18;12.93;84.04
13796;SHT30;40911;51.552;9.874;2024-03-29T14:36:41;13.27;83.33
13796;SHT30;40911;51.552;9.874;2024-03-29T14:39:02;13.09;83.10
13796;SHT30;40911;51.552;9.874;2024-03-29T14:41:24;13.20;83.38
13796;SHT30;40911;51.552;9.874;2024-03-29T14:43:45;13.27;83.58
13796;SHT30;40911;51.552;9.874;2024-03-29T14:46:09;13.06;83.09
13796;SHT30;40911;51.552;9.874;2024-03-29T14:48:31;13.16;83.42
13796;SHT30;40911;51.552;9.874;2024-03-29T14:50:53;13.16;83.39
13796;SHT30;40911;51.552;9.874;2024-03-29T14:53:17;13.08;83.35
13796;SHT30;40911;51.552;9.874;2024-03-29T14:55:39;13.05;83.60
13796;SHT30;40911;51.552;9.874;2024-03-29T14:58:01;13.11;83.56
13796;SHT30;40911;51.552;9.874;2024-03-29T15:00:22;12.95;83.54
13796;SHT30;40911;51.552;9.874;2024-03-29T15:02:44;13.01;84.13
13796;SHT30;40911;51.552;9.874;2024-03-29T15:05:07;12.99;84.04
13796;SHT30;40911;51.552;9.874;2024-03-29T15:07:31;12.89;83.94